Vilassar de Mar, Spain
Current Conditions -  °F | °C
As of 10:30 AM on Saturday 29 Nov 2014 (Local Time) from LELL Reporting Station
Light Rain Light Rain  
Wind Chill: 61°   Ceiling: 6300
Heat Index: 61°   Visibility: 6mi
Dew Point: 57°   Wind: 9mph
Humidity: 88%   Direction: 40°NE
Pressure: 29.5"   Gusts: NA
Location:  41.51°N, 2.39°E
Report Text: LELL 290930Z 04008KT 350V080 9000 -RA FEW010 BKN063 16/14 Q0999
Loading
Personal Weather Stations






























Interactive Weather Map New forecast layout! Learn more

10-Day Weather Forecast

Advertisements
Track Severe Weather on mobile